Latest Weather Observations for Gladstone Airport

IDQ60801

Issued at 6:02 pm EST Tuesday 30 June 2015 (issued every 30 minutes, with the page automatically refreshed every 10 minutes)

About weather observations | Map of weather stations | Latest weather observations for QLD | Other Formats
Station Details ID: 039326 Name: GLADSTONE AIRPORT Lat: -23.87 Lon: 151.22 Height: 16.6 m
Data from the previous 72 hours. | See also: Recent months at Gladstone Airport
Date/Time
EST
Temp
°C
App
Temp
°C
Dew
Point
Rel
Hum
%
Delta-T
°C
Wind Press
QNH
hPa
Press
MSL
hPa
Rain
since 9 am
mm
Dir
 
Spd
km/h
Gust
km/h
Spd
kts
Gust
kts
30/06:00pm 20.7 19.0 13.6 64 4.1 SE 15 20 8 11 1023.3 1023.3 0.0
30/05:30pm 20.8 18.8 14.0 65 3.9 SE 17 28 9 15 1023.2 1023.2 0.0
30/05:00pm 20.7 17.8 15.0 70 3.3 ESE 24 33 13 18 1022.9 1022.9 0.0
30/04:30pm 20.9 17.9 15.9 73 3.0 ESE 26 35 14 19 1022.8 1022.8 0.0
30/04:00pm 21.1 18.5 15.9 72 3.1 ESE 24 35 13 19 1022.9 1022.9 0.0
30/03:30pm 22.4 19.2 14.3 60 4.8 E 24 32 13 17 1022.6 1022.6 0.0
30/03:00pm 22.8 19.7 14.6 60 4.8 E 24 32 13 17 1022.5 1022.5 0.0
30/02:30pm 22.8 20.0 14.4 59 4.9 E 22 30 12 16 1022.6 1022.6 0.0
30/02:00pm 23.3 20.3 13.8 55 5.5 ESE 22 28 12 15 1022.6 1022.6 0.0
30/01:30pm 23.2 20.2 13.7 55 5.5 ESE 22 30 12 16 1022.8 1022.8 0.0
30/01:00pm 23.2 19.9 13.9 56 5.4 ESE 24 35 13 19 1023.2 1023.2 0.0
30/12:30pm 22.7 20.1 13.7 56 5.2 ESE 20 30 11 16 1023.9 1023.8 0.0
30/12:00pm 23.5 20.3 13.1 52 6.0 SE 22 32 12 17 1024.3 1024.2 0.0
30/11:30am 22.9 19.3 13.1 54 5.6 SE 24 32 13 17 1024.8 1024.7 0.0
30/11:00am 22.3 18.6 12.8 55 5.4 SE 24 33 13 18 1025.0 1024.9 0.0
30/10:30am 22.1 18.9 13.2 57 5.1 SE 22 37 12 20 1025.3 1025.2 0.0
30/10:00am 21.7 18.6 13.3 59 4.8 SE 22 32 12 17 1025.4 1025.3 0.0
30/09:30am 21.3 19.2 13.7 62 4.4 SSE 17 26 9 14 1025.9 1025.8 0.0
30/09:00am 20.2 18.0 13.4 65 3.9 SSE 17 30 9 16 1026.1 1026.0 0.0
30/08:30am 19.5 17.7 13.2 67 3.6 SSE 15 22 8 12 1026.1 1026.0 0.0
30/08:00am 17.9 17.3 13.4 75 2.5 S 9 15 5 8 1025.6 1025.5 0.0
30/07:30am 16.8 15.7 13.1 79 2.1 SSW 11 15 6 8 1025.4 1025.3 0.0
30/07:00am 16.0 15.2 12.9 82 1.7 SSW 9 15 5 8 1025.1 1025.0 0.0
30/06:30am 15.6 14.4 12.9 84 1.5 SSW 11 15 6 8 1024.8 1024.7 0.0
30/06:00am 15.7 14.9 12.8 83 1.6 SSW 9 13 5 7 1024.3 1024.2 0.0
30/05:30am 16.9 16.1 13.0 78 2.2 S 9 15 5 8 1024.3 1024.2 0.0
30/05:00am 17.0 15.5 13.1 78 2.2 SSE 13 20 7 11 1024.0 1023.9 0.0
30/04:30am 17.0 14.7 13.1 78 2.2 SSE 17 24 9 13 1023.8 1023.7 0.0
30/04:00am 17.1 15.6 13.0 77 2.3 SSE 13 20 7 11 1024.0 1023.9 0.0
30/03:30am 17.3 15.5 13.2 77 2.3 SSE 15 22 8 12 1023.9 1023.8 0.0
30/03:00am 17.4 15.1 13.1 76 2.4 SSE 17 22 9 12 1024.3 1024.2 0.0
30/02:30am 17.6 15.7 13.1 75 2.5 SSE 15 20 8 11 1024.3 1024.2 0.0
30/02:00am 18.0 16.5 13.1 73 2.7 SE 13 20 7 11 1024.6 1024.5 0.0
30/01:30am 18.4 16.9 13.0 71 3.0 SSE 13 20 7 11 1025.0 1024.9 0.0
30/01:00am 18.8 17.4 13.4 71 3.1 SSE 13 19 7 10 1025.4 1025.3 0.0
30/12:30am 19.2 18.3 13.8 71 3.1 SSE 11 17 6 9 1025.6 1025.5 0.0
30/12:00am 19.2 18.8 14.0 72 3.0 SE 9 15 5 8 1025.8 1025.7 0.0
 
Date/Time
EST
Temp
°C
App
Temp
°C
Dew
Point
Rel
Hum
%
Delta-T
°C
Wind Press
QNH
hPa
Press
MSL
hPa
Rain
since 9 am
mm
Dir
 
Spd
km/h
Gust
km/h
Spd
kts
Gust
kts
29/11:30pm 19.1 17.9 14.1 73 2.9 SE 13 20 7 11 1025.9 1025.8 0.0
29/11:00pm 19.2 18.1 14.2 73 2.9 SE 13 19 7 10 1026.2 1026.1 0.0
29/10:30pm 19.1 18.0 14.4 74 2.7 SSE 13 20 7 11 1026.3 1026.2 0.0
29/10:00pm 19.0 18.3 14.3 74 2.7 SSE 11 17 6 9 1026.1 1026.0 0.0
29/09:30pm 19.3 18.7 14.6 74 2.7 SSE 11 19 6 10 1026.2 1026.1 0.0
29/09:00pm 19.2 18.6 14.5 74 2.7 SSE 11 17 6 9 1026.2 1026.1 0.0
29/08:30pm 19.4 18.3 14.4 73 2.9 SSE 13 19 7 10 1025.9 1025.8 0.0
29/08:00pm 19.5 18.8 14.3 72 3.0 SSE 11 15 6 8 1025.9 1025.8 0.0
29/07:30pm 19.7 18.2 14.1 70 3.2 SSE 15 26 8 14 1025.7 1025.6 0.0
29/07:00pm 20.2 18.6 13.9 67 3.6 SE 15 26 8 14 1025.5 1025.4 0.0
29/06:30pm 20.6 19.3 13.8 65 3.9 SE 13 20 7 11 1025.3 1025.2 0.0
29/06:00pm 20.9 19.7 14.1 65 3.9 SE 13 20 7 11 1025.2 1025.1 0.0
29/05:30pm 21.1 18.9 14.3 65 4.0 ESE 19 26 10 14 1025.0 1024.9 0.0
29/05:00pm 21.5 18.5 13.7 61 4.5 ESE 22 32 12 17 1024.7 1024.6 0.0
29/04:30pm 22.0 18.5 13.4 58 5.0 ESE 24 35 13 19 1024.6 1024.5 0.0
29/04:00pm 22.4 17.7 13.2 56 5.3 ESE 30 41 16 22 1024.4 1024.3 0.0
29/03:30pm 22.7 18.1 13.5 56 5.3 ESE 30 44 16 24 1024.3 1024.2 0.0
29/03:00pm 23.0 17.8 13.5 55 5.5 ESE 33 44 18 24 1024.1 1024.0 0.0
29/02:37pm 23.6 18.6 13.5 53 5.9 ESE 32 50 17 27 1024.3 1024.2 0.0
29/02:30pm 23.2 17.5 13.1 53 5.8 ESE 35 50 19 27 1024.4 1024.3 0.0
29/02:00pm 23.2 18.3 13.7 55 5.5 ESE 32 44 17 24 1024.3 1024.2 0.0
29/01:30pm 23.9 18.8 13.7 53 6.0 ESE 33 43 18 23 1024.6 1024.5 0.0
29/01:00pm 23.7 18.8 13.8 53 5.8 ESE 32 43 17 23 1025.0 1024.9 0.0
29/12:30pm 23.5 18.3 13.4 53 5.9 ESE 33 46 18 25 1025.8 1025.7 0.0
29/12:12pm 23.9 19.2 14.3 55 5.7 ESE 32 52 17 28 1026.2 1026.1 0.0
29/12:00pm 23.7 18.4 14.1 55 5.6 ESE 35 46 19 25 1026.4 1026.3 0.0
29/11:32am 23.3 19.3 14.0 56 5.4 SE 28 50 15 27 1027.0 1026.9 0.0
29/11:30am 23.5 19.6 14.5 57 5.3 SE 28 39 15 21 1027.0 1026.9 0.0
29/11:00am 23.0 18.0 14.0 57 5.2 ESE 33 48 18 26 1027.3 1027.2 0.0
29/10:46am 23.3 18.7 14.6 58 5.1 ESE 32 46 17 25 1027.2 1027.1 0.0
29/10:30am 22.9 20.8 14.7 60 4.9 SE 19 28 10 15 1027.3 1027.2 0.0
29/10:00am 22.1 19.0 14.5 62 4.4 SE 24 33 13 18 1027.4 1027.3 0.0
29/09:30am 21.5 18.7 14.2 63 4.3 SE 22 33 12 18 1027.5 1027.4 0.0
29/09:00am 20.8 18.5 14.7 68 3.6 SE 20 32 11 17 1027.4 1027.3 0.0
29/08:30am 19.9 18.2 14.7 72 3.0 SE 17 22 9 12 1027.4 1027.3 0.0
29/08:00am 19.0 17.7 14.7 76 2.5 SSE 15 20 8 11 1027.2 1027.1 0.0
29/07:30am 18.4 17.0 14.5 78 2.3 SSE 15 22 8 12 1027.0 1026.9 0.0
29/07:00am 18.1 16.7 14.4 79 2.1 SSE 15 20 8 11 1026.7 1026.6 0.0
29/06:30am 18.0 16.5 14.3 79 2.1 SSE 15 24 8 13 1026.1 1026.0 0.0
29/06:00am 18.2 16.3 14.1 77 2.3 SSE 17 22 9 12 1025.9 1025.8 0.0
29/05:30am 18.2 16.7 14.3 78 2.2 SSE 15 20 8 11 1025.6 1025.5 0.0
29/05:00am 18.1 16.6 14.2 78 2.2 SSE 15 20 8 11 1025.3 1025.2 0.0
29/04:30am 17.9 16.7 14.0 78 2.2 SSE 13 20 7 11 1025.4 1025.3 0.0
29/04:00am 18.2 16.6 13.9 76 2.4 SSE 15 24 8 13 1025.6 1025.5 0.0
29/03:30am 18.2 17.0 14.1 77 2.4 SSE 13 19 7 10 1025.4 1025.3 0.0
29/03:00am 18.0 16.8 13.9 77 2.3 SSE 13 20 7 11 1025.6 1025.5 0.0
29/02:30am 17.8 16.5 13.7 77 2.3 SSE 13 20 7 11 1026.0 1025.9 0.0
29/02:00am 18.0 16.3 13.7 76 2.4 SSE 15 26 8 14 1026.0 1025.9 0.0
29/01:30am 18.2 16.5 13.5 74 2.7 SSE 15 22 8 12 1026.2 1026.1 0.0
29/01:00am 18.4 16.3 13.5 73 2.8 SSE 17 24 9 13 1026.5 1026.4 0.0
29/12:30am 18.4 16.7 13.5 73 2.8 SSE 15 22 8 12 1026.6 1026.5 0.0
29/12:00am 18.4 16.7 13.5 73 2.8 SSE 15 22 8 12 1026.7 1026.6 0.0
 
Date/Time
EST
Temp
°C
App
Temp
°C
Dew
Point
Rel
Hum
%
Delta-T
°C
Wind Press
QNH
hPa
Press
MSL
hPa
Rain
since 9 am
mm
Dir
 
Spd
km/h
Gust
km/h
Spd
kts
Gust
kts
28/11:30pm 18.6 16.9 13.5 72 2.9 SSE 15 24 8 13 1026.9 1026.8 0.0
28/11:00pm 18.7 17.4 13.6 72 2.9 SSE 13 24 7 13 1027.0 1026.9 0.0
28/10:30pm 18.9 17.6 13.7 72 3.0 SSE 13 20 7 11 1027.1 1027.0 0.0
28/10:00pm 18.9 17.5 13.5 71 3.1 SSE 13 20 7 11 1027.2 1027.1 0.0
28/09:30pm 19.1 17.7 13.5 70 3.2 SSE 13 19 7 10 1027.2 1027.1 0.0
28/09:00pm 19.2 17.9 13.6 70 3.2 SSE 13 19 7 10 1027.2 1027.1 0.0
28/08:30pm 19.3 18.7 13.5 69 3.3 SSE 9 17 5 9 1027.3 1027.2 0.0
28/08:00pm 19.6 19.0 13.5 68 3.5 SSE 9 17 5 9 1027.2 1027.1 0.0
28/07:30pm 20.1 18.9 14.0 68 3.5 SE 13 20 7 11 1027.1 1027.0 0.0
28/07:00pm 20.3 19.1 14.0 67 3.6 SE 13 19 7 10 1027.2 1027.1 0.0
28/06:30pm 20.9 18.3 13.8 64 4.1 SE 20 28 11 15 1026.9 1026.8 0.0
28/06:00pm 21.3 18.6 13.5 61 4.5 SE 20 28 11 15 1026.5 1026.4 0.0
28/05:30pm 21.7 19.9 13.3 59 4.8 SE 15 22 8 12 1026.3 1026.2 0.0
28/05:00pm 21.9 19.5 13.8 60 4.7 ESE 19 26 10 14 1025.9 1025.8 0.0
28/04:30pm 22.0 18.1 14.4 62 4.5 ESE 28 37 15 20 1025.6 1025.5 0.0
28/04:00pm 22.4 17.8 14.5 61 4.6 ESE 32 39 17 21 1025.4 1025.3 0.0
28/03:30pm 22.8 18.7 13.8 57 5.2 ESE 28 43 15 23 1025.3 1025.2 0.0
28/03:00pm 23.3 19.0 14.3 57 5.3 ESE 30 43 16 23 1025.3 1025.2 0.0
28/02:30pm 23.5 20.1 14.8 58 5.2 ESE 26 35 14 19 1025.2 1025.1 0.0
28/02:00pm 23.7 18.9 14.7 57 5.3 ESE 33 43 18 23 1025.1 1025.0 0.0
28/01:30pm 24.0 19.9 15.0 57 5.4 ESE 30 39 16 21 1025.2 1025.1 0.0
28/01:00pm 23.5 18.9 14.5 57 5.3 ESE 32 43 17 23 1025.5 1025.4 0.0
28/12:30pm 24.3 19.3 14.1 53 6.0 ESE 33 46 18 25 1025.6 1025.5 0.0
28/12:00pm 24.2 20.2 15.1 56 5.4 ESE 30 39 16 21 1026.0 1025.9 0.0
28/11:30am 24.3 21.4 15.0 56 5.6 ESE 24 37 13 20 1026.3 1026.2 0.0
28/11:00am 22.6 19.6 14.7 61 4.6 SE 24 33 13 18 1026.6 1026.5 0.0
28/10:30am 22.4 19.0 14.8 62 4.5 SE 26 35 14 19 1026.8 1026.7 0.0
28/10:00am 22.2 19.2 14.8 63 4.4 SE 24 32 13 17 1026.9 1026.8 0.0
28/09:30am 21.6 19.9 14.7 65 4.1 SE 17 32 9 17 1027.0 1026.9 0.0
28/09:00am 20.4 17.2 14.3 68 3.5 SE 24 35 13 19 1026.9 1026.8 0.0
28/08:30am 20.0 17.8 14.4 70 3.3 SE 19 30 10 16 1027.0 1026.9 0.0
28/08:00am 19.1 16.8 14.1 73 2.9 SSE 19 28 10 15 1026.9 1026.8 0.0
28/07:30am 18.3 16.0 14.0 76 2.5 SSE 19 30 10 16 1026.8 1026.7 0.0
28/07:00am 17.8 16.3 14.1 79 2.1 SSE 15 22 8 12 1026.7 1026.6 0.0
28/06:30am 17.7 16.5 14.0 79 2.1 SSE 13 24 7 13 1026.6 1026.5 0.0
28/06:00am 17.9 16.3 14.0 78 2.2 SSE 15 22 8 12 1026.4 1026.3 0.0
28/05:30am 18.0 16.1 14.1 78 2.2 SSE 17 28 9 15 1026.1 1026.0 0.0
28/05:00am 17.9 16.7 14.0 78 2.2 SSE 13 20 7 11 1025.8 1025.7 0.0
28/04:30am 17.9 16.3 14.0 78 2.2 SSE 15 22 8 12 1025.6 1025.5 0.0
28/04:00am 18.0 16.8 14.1 78 2.2 SSE 13 20 7 11 1025.6 1025.5 0.0
28/03:30am 17.9 16.7 14.0 78 2.2 SSE 13 20 7 11 1025.7 1025.6 0.0
28/03:00am 17.9 16.7 14.0 78 2.2 SSE 13 19 7 10 1025.7 1025.6 0.0
28/02:30am 18.1 16.6 14.2 78 2.2 SSE 15 20 8 11 1025.9 1025.8 0.0
28/02:00am 18.0 17.2 14.1 78 2.2 SSE 11 17 6 9 1026.0 1025.9 0.0
28/01:30am 18.1 16.9 14.0 77 2.3 SSE 13 22 7 12 1026.2 1026.1 0.0
28/01:00am 18.3 17.1 14.0 76 2.4 SSE 13 22 7 12 1026.2 1026.1 0.0
28/12:30am 18.5 16.9 14.0 75 2.6 SSE 15 24 8 13 1026.3 1026.2 0.0
28/12:00am 18.6 16.7 14.1 75 2.6 SSE 17 24 9 13 1026.5 1026.4 0.0
 
Date/Time
EST
Temp
°C
App
Temp
°C
Dew
Point
Rel
Hum
%
Delta-T
°C
Wind Press
QNH
hPa
Press
MSL
hPa
Rain
since 9 am
mm
Dir
 
Spd
km/h
Gust
km/h
Spd
kts
Gust
kts
27/11:30pm 18.7 17.5 14.0 74 2.7 SSE 13 22 7 12 1026.7 1026.6 0.0
27/11:00pm 18.8 17.7 14.3 75 2.6 SSE 13 20 7 11 1026.9 1026.8 0.0
27/10:30pm 18.8 17.7 14.3 75 2.6 SSE 13 20 7 11 1027.2 1027.1 0.0
27/10:00pm 18.8 17.6 14.1 74 2.7 SSE 13 20 7 11 1027.1 1027.0 0.0
27/09:30pm 18.8 18.0 14.1 74 2.7 SSE 11 20 6 11 1027.2 1027.1 0.0
27/09:00pm 18.6 18.1 13.7 73 2.8 S 9 15 5 8 1027.2 1027.1 0.0
27/08:30pm 19.3 18.4 13.7 70 3.2 SSE 11 19 6 10 1027.0 1026.9 0.0
27/08:00pm 19.4 18.8 13.6 69 3.3 SSE 9 15 5 8 1027.0 1026.9 0.0
27/07:30pm 19.6 19.0 13.5 68 3.5 S 9 15 5 8 1026.7 1026.6 0.0
27/07:00pm 19.8 19.2 13.5 67 3.6 SSE 9 13 5 7 1026.6 1026.5 0.0
27/06:30pm 20.5 19.2 13.7 65 3.9 SSE 13 22 7 12 1026.4 1026.3 0.0

Other Formats:

Comma delimited format used in spreadsheet applications
http://www.bom.gov.au/fwo/IDQ60801/IDQ60801.94381.axf

JavaScript Object Notation format (JSON) in row-major order
http://www.bom.gov.au/fwo/IDQ60801/IDQ60801.94381.json